createdAt,value
2023-02-19T05:47:36.580Z,3.17
2023-02-19T05:50:04.575Z,3.03
2023-02-19T05:52:32.572Z,2.30
2023-02-19T05:55:00.490Z,2.15
2023-02-19T05:57:28.424Z,2.67
2023-02-19T05:59:57.761Z,2.60
2023-02-19T06:02:25.693Z,2.28
2023-02-19T06:04:55.060Z,2.58
2023-02-19T06:07:22.972Z,3.30
2023-02-19T06:09:51.874Z,3.40
2023-02-19T06:12:19.801Z,2.05
2023-02-19T06:14:47.742Z,3.33
2023-02-19T06:17:15.880Z,2.88
2023-02-19T06:19:44.118Z,1.92
2023-02-19T06:22:15.668Z,2.13
2023-02-19T06:24:43.864Z,2.72
2023-02-19T06:27:11.984Z,3.10
2023-02-19T06:29:39.937Z,3.47
2023-02-19T06:32:08.812Z,2.58
2023-02-19T06:34:37.156Z,4.25
2023-02-19T06:37:05.083Z,3.47
2023-02-19T06:39:34.334Z,2.30
2023-02-19T06:42:02.370Z,2.15
2023-02-19T06:44:39.773Z,2.00
2023-02-19T06:47:10.622Z,2.47
2023-02-19T06:49:40.556Z,2.08
2023-02-19T06:52:08.628Z,2.83
2023-02-19T06:54:38.071Z,1.58
2023-02-19T06:57:06.050Z,1.80
2023-02-19T06:59:33.992Z,1.20
2023-02-19T07:02:01.934Z,1.90
2023-02-19T07:04:29.936Z,1.33
2023-02-19T07:06:58.084Z,1.50
2023-02-19T07:09:28.433Z,1.95
2023-02-19T07:11:58.048Z,0.80
2023-02-19T07:14:26.230Z,0.75
2023-02-19T07:16:54.206Z,1.75
2023-02-19T07:19:22.435Z,1.80
2023-02-19T07:21:50.416Z,2.67
2023-02-19T07:24:21.641Z,1.38
2023-02-19T07:26:49.574Z,1.40
2023-02-19T07:29:19.042Z,1.20
2023-02-19T07:31:47.054Z,1.27
2023-02-19T07:34:16.824Z,1.38
2023-02-19T07:36:44.829Z,0.82
2023-02-19T07:39:15.725Z,0.73
2023-02-19T07:41:43.694Z,0.93
2023-02-19T07:44:13.576Z,1.00
2023-02-19T15:02:46.672Z,4.40
2023-02-19T15:05:17.050Z,5.30
2023-02-19T15:07:46.941Z,5.65
2023-02-19T15:10:16.311Z,7.07
2023-02-19T15:12:48.522Z,3.13
2023-02-19T15:15:21.150Z,6.45
2023-02-19T15:17:51.963Z,3.13
2023-02-19T15:20:22.589Z,4.78
2023-02-19T15:22:51.078Z,6.55
2023-02-19T15:25:21.083Z,3.25
2023-02-19T15:27:49.438Z,5.05
2023-02-19T15:30:24.645Z,5.63
2023-02-19T15:32:55.698Z,4.25
2023-02-19T15:35:25.199Z,5.32
2023-02-19T15:37:55.045Z,5.15
2023-02-19T15:40:31.395Z,6.80
2023-02-19T15:43:01.392Z,4.30
2023-02-19T15:45:35.234Z,2.70
2023-02-19T15:48:08.985Z,6.18
2023-02-19T15:50:40.096Z,4.82
2023-02-19T15:53:10.673Z,7.00
2023-02-19T15:55:42.148Z,2.78
2023-02-19T15:58:19.275Z,4.60
2023-02-19T16:00:51.716Z,5.00
2023-02-19T16:03:22.799Z,4.20
2023-02-19T16:06:00.411Z,6.80
2023-02-19T16:08:31.119Z,5.95
2023-02-19T16:11:04.718Z,4.03
2023-02-19T16:13:35.008Z,5.25
2023-02-19T16:16:15.229Z,5.85
2023-02-19T16:18:48.455Z,6.20
2023-02-19T16:21:18.573Z,6.75
2023-02-19T16:23:49.311Z,5.68
2023-02-19T16:26:17.672Z,5.10
2023-02-19T16:28:45.679Z,5.35
2023-02-19T16:31:15.120Z,4.97
2023-02-19T16:33:46.116Z,3.15
2023-02-19T16:36:36.801Z,4.32
2023-02-19T16:39:22.351Z,8.50
2023-02-19T16:42:15.521Z,7.18
2023-02-19T16:44:44.763Z,6.32
2023-02-19T16:47:30.208Z,7.13
2023-02-19T16:50:00.844Z,6.63
2023-02-19T16:52:30.643Z,4.60
2023-02-19T16:54:58.580Z,6.43
2023-02-19T16:57:26.560Z,9.18
2023-02-19T16:59:54.552Z,9.57
2023-02-19T17:02:25.373Z,8.55
2023-02-19T17:04:55.190Z,9.23
2023-02-19T17:07:23.743Z,8.32
2023-02-19T17:09:53.111Z,7.70
2023-02-19T17:12:21.472Z,5.97
2023-02-19T17:14:50.046Z,10.30
2023-02-19T17:17:18.247Z,6.68
2023-02-19T17:19:46.303Z,11.40
2023-02-19T17:22:17.773Z,10.57
2023-02-19T17:24:46.080Z,9.32
2023-02-19T17:27:15.836Z,7.75
2023-02-19T17:29:43.858Z,4.90
2023-02-19T17:32:11.907Z,8.63
2023-02-19T17:34:39.962Z,6.22
2023-02-19T17:37:10.973Z,6.95
2023-02-19T17:39:41.144Z,6.85
2023-02-19T17:42:09.125Z,7.63
2023-02-19T17:44:38.510Z,8.80
2023-02-19T17:47:06.910Z,7.00
2023-02-19T17:49:36.221Z,5.93
2023-02-19T17:52:04.640Z,5.82
2023-02-19T17:54:32.633Z,7.38
2023-02-19T17:57:00.605Z,8.70
2023-02-19T17:59:28.671Z,7.05
2023-02-19T18:01:57.956Z,5.68
2023-02-19T18:04:25.936Z,5.10
2023-02-19T18:06:54.107Z,8.32
2023-02-19T18:09:23.029Z,6.57
2023-02-19T18:11:51.052Z,8.38
2023-02-19T18:14:19.089Z,10.65
2023-02-19T18:16:50.091Z,9.00
2023-02-19T18:19:19.901Z,5.65
2023-02-19T18:21:47.876Z,10.68
2023-02-19T18:24:16.241Z,7.15
2023-02-19T18:26:44.728Z,10.50
2023-02-19T18:29:12.850Z,6.68
2023-02-19T18:31:41.043Z,11.27
2023-02-19T18:34:19.469Z,8.35
2023-02-19T18:36:54.250Z,12.45
2023-02-19T18:39:22.330Z,6.93
2023-02-19T18:41:51.239Z,8.13
2023-02-19T18:44:20.125Z,9.38
2023-02-19T18:46:48.474Z,6.47
2023-02-19T18:49:19.608Z,8.48
2023-02-19T18:51:49.334Z,8.45
2023-02-19T18:54:17.376Z,9.68
2023-02-19T18:56:46.767Z,7.95
2023-02-19T18:59:15.088Z,7.05
2023-02-19T19:01:43.356Z,8.38
2023-02-19T19:04:11.443Z,9.20
2023-02-19T19:06:39.486Z,26.83
2023-02-19T19:09:09.157Z,13.65
2023-02-19T19:11:37.246Z,7.32
2023-02-19T19:14:05.374Z,7.32
2023-02-19T19:16:33.395Z,8.73
2023-02-19T19:19:04.014Z,6.55
2023-02-19T19:21:32.150Z,6.40
2023-02-19T19:24:00.245Z,6.13
2023-02-19T19:26:29.676Z,6.63
2023-02-19T19:28:59.667Z,5.95
2023-02-19T19:31:34.298Z,6.88
2023-02-19T19:34:06.169Z,7.18
2023-02-19T19:36:34.270Z,5.53
2023-02-19T19:39:02.462Z,11.65
2023-02-19T19:41:32.268Z,6.82
2023-02-19T19:44:03.839Z,5.45
2023-02-19T19:46:31.959Z,6.65
2023-02-19T19:49:00.135Z,6.68
2023-02-19T19:51:32.416Z,6.43
2023-02-19T19:54:01.047Z,8.77
2023-02-19T19:56:29.210Z,4.68
2023-02-19T19:58:58.652Z,7.60
2023-02-19T20:01:26.763Z,4.78
2023-02-19T20:03:54.797Z,6.60
2023-02-19T20:06:27.245Z,4.45
2023-02-19T20:08:55.813Z,8.18
2023-02-19T20:11:24.247Z,8.93
2023-02-19T20:13:52.516Z,10.43
2023-02-19T20:16:27.245Z,8.27
2023-02-19T20:18:55.488Z,6.20
2023-02-19T20:21:23.596Z,6.05
2023-02-19T20:23:51.663Z,5.93
2023-02-19T20:26:24.393Z,5.93
2023-02-19T20:28:52.551Z,7.68
2023-02-19T20:31:21.161Z,6.55
2023-02-19T20:33:51.127Z,10.88
2023-02-19T20:36:20.034Z,6.45
2023-02-19T20:38:49.748Z,7.40
2023-02-19T20:41:17.836Z,5.38
2023-02-19T20:43:45.828Z,7.88
2023-02-19T20:46:14.328Z,8.18
2023-02-19T20:48:42.852Z,6.22
2023-02-19T20:51:12.330Z,9.00
2023-02-19T20:53:42.297Z,8.73
2023-02-19T20:56:11.711Z,6.63
2023-02-19T20:58:42.362Z,9.70
